F/V Le Medeluc — FGRM — position and weather

sailwx.info

Track history (hours):
 
Tides and Currents Weather Stations Pressure Air Temp Water Temp Dewpoint Dewpoint Depression Visibility Wind Speed Wind Dir Waves Ship Positions

F/V Le Medeluc

Last reported at 2017-Nov-19 22:23 UTC. Time now 2017-Nov-20 06:20 UTC.
Position N 45°56' W 001°40'.

Length 16 m; draft 3.2 m.

Type: Fishing. MMSI: 228113000.

Date/timePositionNaut miles runAvg speedWind from/ knotsBaromVisibWave heightAir tempDewpointWater temp
2017-Nov-19 22:23N 45°56' W 001°40'1 3.3
2017-Nov-19 22:00N 45°56' W 001°41'5 0.3
2017-Nov-19 07:46N 45°54' W 001°35'5 2.3
2017-Nov-19 05:34N 45°55' W 001°42'0 3.5
2017-Nov-19 05:30N 45°55' W 001°42'2 3.1
2017-Nov-19 05:00N 45°57' W 001°43'2 3.3
2017-Nov-19 04:30N 45°58' W 001°45'2 3.3
2017-Nov-19 04:00N 45°58' W 001°47'2 3.2
2017-Nov-19 03:29N 45°57' W 001°50'2 3.3
2017-Nov-19 03:00N 45°57' W 001°52'1 2.7
2017-Nov-19 02:29N 45°56' W 001°54'2 3.6
2017-Nov-19 01:55N 45°56' W 001°57'1 3.6
2017-Nov-19 01:30N 45°56' W 001°59'2 3.7
2017-Nov-19 01:00N 45°56' W 002°01'3 1.5
2017-Nov-18 23:03N 45°56' W 001°57'2 2.3
2017-Nov-18 22:03N 45°56' W 001°54'1 2.7
2017-Nov-18 21:49N 45°57' W 001°53'1 3.3
2017-Nov-18 21:27N 45°58' W 001°55'2 3.3
2017-Nov-18 20:58N 45°58' W 001°57'10 2.0
2017-Nov-18 16:06N 46°06' W 001°47'4 0.9
2017-Nov-18 11:51N 46°09' W 001°51'1 3.4
2017-Nov-18 11:30N 46°08' W 001°50'3 1.9
2017-Nov-18 09:57N 46°06' W 001°47'2 3.2
2017-Nov-18 09:20N 46°07' W 001°49'1 3.1
2017-Nov-18 08:57N 46°08' W 001°50'1 2.9
2017-Nov-18 08:30N 46°06' W 001°50'2 3.1
2017-Nov-18 07:57N 46°05' W 001°50'1 3.0
2017-Nov-18 07:28N 46°03' W 001°50'1 2.9
2017-Nov-18 07:00N 46°02' W 001°50'5 4.8
2017-Nov-18 06:03N 45°58' W 001°53'1 8.4
2017-Nov-18 05:53N 45°56' W 001°53'24 0.9
2017-Nov-17 04:43N 45°55' W 001°20'0 0.0
2017-Nov-17 04:20N 45°55' W 001°20'0 0.0
2017-Nov-17 01:34N 45°55' W 001°20'1 0.6
2017-Nov-16 22:59N 45°54' W 001°21'5 9.3
2017-Nov-16 22:24N 45°52' W 001°28'4 9.8
2017-Nov-16 22:00N 45°51' W 001°33'5 9.7
2017-Nov-16 21:30N 45°49' W 001°40'8 2.6
2017-Nov-16 18:22N 45°57' W 001°42'2 3.3
2017-Nov-16 17:38N 45°60' W 001°42'1 4.3
2017-Nov-16 17:30N 46°00' W 001°42'2 2.7
2017-Nov-16 16:36N 46°02' W 001°44'1 3.3
2017-Nov-16 16:26N 46°03' W 001°44'6 2.7
2017-Nov-16 14:05N 46°07' W 001°50'0 3.3
2017-Nov-16 14:00N 46°07' W 001°50'3 3.3
2017-Nov-16 13:09N 46°05' W 001°48'1 3.3
2017-Nov-16 13:00N 46°05' W 001°47'2 2.3
2017-Nov-16 12:02N 46°03' W 001°44'0 3.3
2017-Nov-16 11:59N 46°04' W 001°44'2 3.4
2017-Nov-16 11:27N 46°05' W 001°46'1 3.3
2017-Nov-16 11:00N 46°06' W 001°48'2 3.5
2017-Nov-16 10:30N 46°06' W 001°50'2 1.5
2017-Nov-16 09:16N 46°06' W 001°48'2 3.4
2017-Nov-16 08:48N 46°05' W 001°46'1 3.5
2017-Nov-16 08:30N 46°04' W 001°45'1 2.7
2017-Nov-16 08:00N 46°03' W 001°47'2 3.1
2017-Nov-16 07:30N 46°02' W 001°49'2 3.2
2017-Nov-16 07:00N 46°01' W 001°51'3 5.2
2017-Nov-16 06:30N 45°59' W 001°52'3 5.4
2017-Nov-16 06:00N 45°56' W 001°54'2 3.1
2017-Nov-16 05:30N 45°56' W 001°56'2 3.1
2017-Nov-16 05:00N 45°56' W 001°58'2 3.1
2017-Nov-16 04:30N 45°57' W 002°01'2 3.2
2017-Nov-16 04:00N 45°57' W 002°03'5 3.1
2017-Nov-16 02:17N 45°56' W 001°55'1 2.2
2017-Nov-16 02:00N 45°56' W 001°56'2 3.3
2017-Nov-16 01:30N 45°56' W 001°58'2 3.4
2017-Nov-16 01:00N 45°57' W 002°01'2 3.5
2017-Nov-16 00:28N 45°58' W 002°03'5 2.6
2017-Nov-15 22:32N 45°56' W 001°56'1 3.7
2017-Nov-15 22:23N 45°57' W 001°56'0 0.9
2017-Nov-15 22:00N 45°56' W 001°55'2 3.4
2017-Nov-15 21:30N 45°56' W 001°58'2 0.7
2017-Nov-15 18:16N 45°56' W 001°54'10 2.5
2017-Nov-15 14:28N 46°02' W 001°43'1 3.2
2017-Nov-15 14:00N 46°03' W 001°45'2 3.2
2017-Nov-15 13:30N 46°03' W 001°48'4 1.7
2017-Nov-15 11:14N 46°02' W 001°42'1 2.3
2017-Nov-15 11:00N 46°02' W 001°43'2 3.4
2017-Nov-15 10:30N 46°03' W 001°45'2 3.2
2017-Nov-15 09:59N 46°02' W 001°47'2 3.4
2017-Nov-15 09:30N 46°02' W 001°50'1 2.2
2017-Nov-15 08:58N 46°02' W 001°51'2 3.1
2017-Nov-15 08:28N 46°02' W 001°49'2 3.1
2017-Nov-15 07:56N 46°03' W 001°47'0 0.6
2017-Nov-15 07:30N 46°03' W 001°47'2 3.2
2017-Nov-15 07:00N 46°02' W 001°49'2 3.1
2017-Nov-15 06:28N 46°01' W 001°51'1 3.0
2017-Nov-15 05:59N 46°01' W 001°53'1 3.0
2017-Nov-15 05:30N 46°01' W 001°55'1 2.3
2017-Nov-15 04:56N 46°02' W 001°53'2 3.7
2017-Nov-15 04:17N 46°02' W 001°50'1 2.8
2017-Nov-15 03:49N 46°01' W 001°48'1 3.2
2017-Nov-15 03:22N 46°00' W 001°46'19 3.6
2017-Nov-14 21:58N 45°55' W 001°20'1 2.3
2017-Nov-14 21:30N 45°54' W 001°21'9 5.0
2017-Nov-14 19:42N 45°58' W 001°33'2 7.6
2017-Nov-14 19:29N 45°58' W 001°35'4 7.7
2017-Nov-14 19:00N 45°60' W 001°40'1 2.6
2017-Nov-14 18:29N 46°01' W 001°41'2 3.2
2017-Nov-14 18:00N 46°02' W 001°42'2 3.2
2017-Nov-14 17:30N 46°03' W 001°44'1 2.9
2017-Nov-14 17:00N 46°03' W 001°47'1 3.0
2017-Nov-14 16:30N 46°02' W 001°49'2 3.0
2017-Nov-14 15:55N 46°02' W 001°51'1 3.0
2017-Nov-14 15:30N 46°02' W 001°53'15 2.3
2017-Nov-14 08:47N 46°01' W 001°31'1 3.4
2017-Nov-14 08:24N 46°01' W 001°32'3 3.6
2017-Nov-14 07:39N 46°01' W 001°36'1 3.5
2017-Nov-14 07:29N 46°00' W 001°37'  
2017-Nov-10 09:07N 45°55' W 001°20'0 0.0
2017-Nov-10 08:54N 45°55' W 001°20'0 0.2
2017-Nov-10 08:00N 45°55' W 001°20'  
Track history (hours):
 
Tides and Currents Weather Stations Pressure Air Temp Water Temp Dewpoint Dewpoint Depression Visibility Wind Speed Wind Dir Waves Ship Positions

F/V Le Medeluc

Last reported at 2017-Nov-19 22:23 UTC. Time now 2017-Nov-20 06:20 UTC.
Position N 45°56' W 001°40'.

Length 16 m; draft 3.2 m.

Type: Fishing. MMSI: 228113000.

Date/timePositionNaut miles runAvg speedWind from/ knotsBaromVisibWave heightAir tempDewpointWater temp
2017-Nov-19 22:23N 45°56' W 001°40'1 3.3
2017-Nov-19 22:00N 45°56' W 001°41'5 0.3
2017-Nov-19 07:46N 45°54' W 001°35'5 2.3
2017-Nov-19 05:34N 45°55' W 001°42'0 3.5
2017-Nov-19 05:30N 45°55' W 001°42'2 3.1
2017-Nov-19 05:00N 45°57' W 001°43'2 3.3
2017-Nov-19 04:30N 45°58' W 001°45'2 3.3
2017-Nov-19 04:00N 45°58' W 001°47'2 3.2
2017-Nov-19 03:29N 45°57' W 001°50'2 3.3
2017-Nov-19 03:00N 45°57' W 001°52'1 2.7
2017-Nov-19 02:29N 45°56' W 001°54'2 3.6
2017-Nov-19 01:55N 45°56' W 001°57'1 3.6
2017-Nov-19 01:30N 45°56' W 001°59'2 3.7
2017-Nov-19 01:00N 45°56' W 002°01'3 1.5
2017-Nov-18 23:03N 45°56' W 001°57'2 2.3
2017-Nov-18 22:03N 45°56' W 001°54'1 2.7
2017-Nov-18 21:49N 45°57' W 001°53'1 3.3
2017-Nov-18 21:27N 45°58' W 001°55'2 3.3
2017-Nov-18 20:58N 45°58' W 001°57'10 2.0
2017-Nov-18 16:06N 46°06' W 001°47'4 0.9
2017-Nov-18 11:51N 46°09' W 001°51'1 3.4
2017-Nov-18 11:30N 46°08' W 001°50'3 1.9
2017-Nov-18 09:57N 46°06' W 001°47'2 3.2
2017-Nov-18 09:20N 46°07' W 001°49'1 3.1
2017-Nov-18 08:57N 46°08' W 001°50'1 2.9
2017-Nov-18 08:30N 46°06' W 001°50'2 3.1
2017-Nov-18 07:57N 46°05' W 001°50'1 3.0
2017-Nov-18 07:28N 46°03' W 001°50'1 2.9
2017-Nov-18 07:00N 46°02' W 001°50'5 4.8
2017-Nov-18 06:03N 45°58' W 001°53'1 8.4
2017-Nov-18 05:53N 45°56' W 001°53'24 0.9
2017-Nov-17 04:43N 45°55' W 001°20'0 0.0
2017-Nov-17 04:20N 45°55' W 001°20'0 0.0
2017-Nov-17 01:34N 45°55' W 001°20'1 0.6
2017-Nov-16 22:59N 45°54' W 001°21'5 9.3
2017-Nov-16 22:24N 45°52' W 001°28'4 9.8
2017-Nov-16 22:00N 45°51' W 001°33'5 9.7
2017-Nov-16 21:30N 45°49' W 001°40'8 2.6
2017-Nov-16 18:22N 45°57' W 001°42'2 3.3
2017-Nov-16 17:38N 45°60' W 001°42'1 4.3
2017-Nov-16 17:30N 46°00' W 001°42'2 2.7
2017-Nov-16 16:36N 46°02' W 001°44'1 3.3
2017-Nov-16 16:26N 46°03' W 001°44'6 2.7
2017-Nov-16 14:05N 46°07' W 001°50'0 3.3
2017-Nov-16 14:00N 46°07' W 001°50'3 3.3
2017-Nov-16 13:09N 46°05' W 001°48'1 3.3
2017-Nov-16 13:00N 46°05' W 001°47'2 2.3
2017-Nov-16 12:02N 46°03' W 001°44'0 3.3
2017-Nov-16 11:59N 46°04' W 001°44'2 3.4
2017-Nov-16 11:27N 46°05' W 001°46'1 3.3
2017-Nov-16 11:00N 46°06' W 001°48'2 3.5
2017-Nov-16 10:30N 46°06' W 001°50'2 1.5
2017-Nov-16 09:16N 46°06' W 001°48'2 3.4
2017-Nov-16 08:48N 46°05' W 001°46'1 3.5
2017-Nov-16 08:30N 46°04' W 001°45'1 2.7
2017-Nov-16 08:00N 46°03' W 001°47'2 3.1
2017-Nov-16 07:30N 46°02' W 001°49'2 3.2
2017-Nov-16 07:00N 46°01' W 001°51'3 5.2
2017-Nov-16 06:30N 45°59' W 001°52'3 5.4
2017-Nov-16 06:00N 45°56' W 001°54'2 3.1
2017-Nov-16 05:30N 45°56' W 001°56'2 3.1
2017-Nov-16 05:00N 45°56' W 001°58'2 3.1
2017-Nov-16 04:30N 45°57' W 002°01'2 3.2
2017-Nov-16 04:00N 45°57' W 002°03'5 3.1
2017-Nov-16 02:17N 45°56' W 001°55'1 2.2
2017-Nov-16 02:00N 45°56' W 001°56'2 3.3
2017-Nov-16 01:30N 45°56' W 001°58'2 3.4
2017-Nov-16 01:00N 45°57' W 002°01'2 3.5
2017-Nov-16 00:28N 45°58' W 002°03'5 2.6
2017-Nov-15 22:32N 45°56' W 001°56'1 3.7
2017-Nov-15 22:23N 45°57' W 001°56'0 0.9
2017-Nov-15 22:00N 45°56' W 001°55'2 3.4
2017-Nov-15 21:30N 45°56' W 001°58'2 0.7
2017-Nov-15 18:16N 45°56' W 001°54'10 2.5
2017-Nov-15 14:28N 46°02' W 001°43'1 3.2
2017-Nov-15 14:00N 46°03' W 001°45'2 3.2
2017-Nov-15 13:30N 46°03' W 001°48'4 1.7
2017-Nov-15 11:14N 46°02' W 001°42'1 2.3
2017-Nov-15 11:00N 46°02' W 001°43'2 3.4
2017-Nov-15 10:30N 46°03' W 001°45'2 3.2
2017-Nov-15 09:59N 46°02' W 001°47'2 3.4
2017-Nov-15 09:30N 46°02' W 001°50'1 2.2
2017-Nov-15 08:58N 46°02' W 001°51'2 3.1
2017-Nov-15 08:28N 46°02' W 001°49'2 3.1
2017-Nov-15 07:56N 46°03' W 001°47'0 0.6
2017-Nov-15 07:30N 46°03' W 001°47'2 3.2
2017-Nov-15 07:00N 46°02' W 001°49'2 3.1
2017-Nov-15 06:28N 46°01' W 001°51'1 3.0
2017-Nov-15 05:59N 46°01' W 001°53'1 3.0
2017-Nov-15 05:30N 46°01' W 001°55'1 2.3
2017-Nov-15 04:56N 46°02' W 001°53'2 3.7
2017-Nov-15 04:17N 46°02' W 001°50'1 2.8
2017-Nov-15 03:49N 46°01' W 001°48'1 3.2
2017-Nov-15 03:22N 46°00' W 001°46'19 3.6
2017-Nov-14 21:58N 45°55' W 001°20'1 2.3
2017-Nov-14 21:30N 45°54' W 001°21'9 5.0
2017-Nov-14 19:42N 45°58' W 001°33'2 7.6
2017-Nov-14 19:29N 45°58' W 001°35'4 7.7
2017-Nov-14 19:00N 45°60' W 001°40'1 2.6
2017-Nov-14 18:29N 46°01' W 001°41'2 3.2
2017-Nov-14 18:00N 46°02' W 001°42'2 3.2
2017-Nov-14 17:30N 46°03' W 001°44'1 2.9
2017-Nov-14 17:00N 46°03' W 001°47'1 3.0
2017-Nov-14 16:30N 46°02' W 001°49'2 3.0
2017-Nov-14 15:55N 46°02' W 001°51'1 3.0
2017-Nov-14 15:30N 46°02' W 001°53'15 2.3
2017-Nov-14 08:47N 46°01' W 001°31'1 3.4
2017-Nov-14 08:24N 46°01' W 001°32'3 3.6
2017-Nov-14 07:39N 46°01' W 001°36'1 3.5
2017-Nov-14 07:29N 46°00' W 001°37'  
2017-Nov-10 09:07N 45°55' W 001°20'0 0.0
2017-Nov-10 08:54N 45°55' W 001°20'0 0.2
2017-Nov-10 08:00N 45°55' W 001°20'  

Dump ship's entire track history